createdAt,value
2022-10-01T01:10:48.687Z,992.96
2022-10-01T01:27:29.815Z,992.59
2022-10-01T03:01:27.277Z,990.57
2022-10-01T03:33:52.195Z,990.26
2022-10-01T04:39:00.879Z,989.64
2022-10-01T04:39:57.608Z,989.64
2022-10-01T04:40:57.394Z,989.59
2022-10-01T04:41:57.443Z,989.55
2022-10-01T04:42:57.354Z,989.57
2022-10-01T04:43:57.429Z,989.58
2022-10-01T04:44:57.380Z,989.55
2022-10-01T04:45:57.342Z,989.56
2022-10-01T04:46:57.314Z,989.51
2022-10-01T04:47:57.311Z,989.58
2022-10-01T04:48:57.369Z,989.62
2022-10-01T04:49:57.327Z,989.66
2022-10-01T04:50:57.368Z,989.63
2022-10-01T04:51:57.284Z,989.58
2022-10-01T04:52:57.324Z,989.66
2022-10-01T04:53:57.306Z,989.62
2022-10-01T04:54:57.243Z,989.64
2022-10-01T04:55:57.392Z,989.64
2022-10-01T04:56:57.301Z,989.65
2022-10-01T04:57:58.374Z,989.68
2022-10-01T04:58:57.210Z,989.71
2022-10-01T04:59:59.329Z,989.68
2022-10-01T05:08:43.371Z,989.62
2022-10-01T05:09:43.866Z,989.69
2022-10-01T05:10:43.756Z,989.65
2022-10-01T05:11:44.022Z,989.71
2022-10-01T05:12:43.782Z,989.66
2022-10-01T05:13:43.836Z,989.69
2022-10-01T05:14:43.867Z,989.70
2022-10-01T05:15:43.762Z,989.60
2022-10-01T05:16:43.733Z,989.70
2022-10-01T05:17:43.742Z,989.70
2022-10-01T05:18:43.690Z,989.66
2022-10-01T05:19:43.665Z,989.76
2022-10-01T06:00:38.361Z,989.89
2022-10-01T09:19:47.983Z,991.41
2022-10-01T09:20:48.273Z,991.45
2022-10-01T09:21:48.208Z,991.42
2022-10-01T09:22:48.194Z,991.41
2022-10-01T09:23:48.169Z,991.44
2022-10-01T09:24:48.169Z,991.43
2022-10-01T09:25:48.141Z,991.43
2022-10-01T09:26:48.380Z,991.42
2022-10-01T09:27:48.135Z,991.42
2022-10-01T09:28:48.127Z,991.41
2022-10-01T09:29:48.177Z,991.46
2022-10-01T09:30:48.158Z,991.45
2022-10-01T09:31:48.128Z,991.44
2022-10-01T09:32:48.124Z,991.44
2022-10-01T09:33:48.082Z,991.46
2022-10-01T09:34:48.193Z,991.48
2022-10-01T09:35:48.028Z,991.49
2022-10-01T09:36:48.122Z,991.52
2022-10-01T09:37:48.068Z,991.52
2022-10-01T09:38:47.991Z,991.52
2022-10-01T09:39:48.030Z,991.53
2022-10-01T09:40:47.977Z,991.53
2022-10-01T09:41:48.018Z,991.54
2022-10-01T09:42:47.981Z,991.56
2022-10-01T09:43:47.985Z,991.55
2022-10-01T09:44:47.940Z,991.54
2022-10-01T09:45:48.032Z,991.53
2022-10-01T10:32:03.323Z,991.90
2022-10-01T11:58:57.488Z,992.55
2022-10-01T11:59:58.396Z,992.54
2022-10-01T12:00:58.273Z,992.54
2022-10-01T12:01:58.875Z,992.58
2022-10-01T12:38:23.210Z,992.96
2022-10-01T13:16:25.763Z,993.28
2022-10-01T13:44:26.883Z,993.77
2022-10-01T13:57:15.791Z,993.86
